Time;durP1;ratioP1;P1;durP2;ratioP2;P2;SDS_P1;SDS_P2;PMS_P1;PMS_P2;Temp;Humidity;BMP_temperature;BMP_pressure;BME280_temperature;BME280_humidity;BME280_pressure;Samples;Min_cycle;Max_cycle;Signal;HPM_P1;HPM_P2
2022/12/04 19:37:46;;;;;;;;;;;5.60;99.90;;;;;;2432981;54;52187;-68
2022/12/04 19:40:21;;;;;;;;;;;5.30;99.90;;;;;;2616056;31;20399;-69
2022/12/04 19:42:51;;;;;;;;;;;5.20;99.90;;;;;;2614925;54;20051;-69
2022/12/04 19:45:21;;;;;;;;;;;5.20;99.90;;;;;;2615931;47;19951;-70
2022/12/04 19:47:51;;;;;;;;;;;5.20;99.90;;;;;;2616500;39;20366;-71
2022/12/04 19:50:21;;;;;;;;;;;5.30;99.90;;;;;;2616266;54;19955;-71
2022/12/04 19:52:53;;;;;;;;;;;5.30;99.90;;;;;;2615802;54;19954;-71
2022/12/04 19:55:23;;;;;;;;;;;5.30;99.90;;;;;;2618515;47;19947;-71
2022/12/04 19:57:52;;;;;;;;;;;5.30;99.90;;;;;;2620624;39;20498;-70
2022/12/04 20:00:22;;;;;;;;;;;5.20;99.90;;;;;;2617988;54;19957;-70
2022/12/04 20:02:52;;;;;;;;;;;5.40;99.90;;;;;;2616435;47;19977;-70
2022/12/04 20:05:21;;;;;;;;;;;5.10;99.90;;;;;;2616441;51;19997;-71
2022/12/04 20:07:54;;;;;;;;;;;5.10;99.90;;;;;;2616508;54;20463;-72
2022/12/04 20:10:24;;;;;;;;;;;5.10;99.90;;;;;;2616842;47;19957;-71
2022/12/04 20:12:54;;;;;;;;;;;4.80;99.90;;;;;;2617010;54;19946;-70
2022/12/04 20:15:23;;;;;;;;;;;5.10;99.90;;;;;;2616378;47;20032;-73
2022/12/04 20:17:53;;;;;;;;;;;5.10;99.90;;;;;;2616610;39;20352;-72
2022/12/04 20:20:25;;;;;;;;;;;5.20;99.90;;;;;;2615544;46;19969;-71
2022/12/04 20:22:58;;;;;;;;;;;5.20;99.90;;;;;;2616224;47;20823;-71
2022/12/04 20:25:29;;;;;;;;;;;5.20;99.90;;;;;;2616486;54;20442;-71
2022/12/04 20:27:59;;;;;;;;;;;5.10;99.90;;;;;;2616530;47;19950;-70
2022/12/04 20:30:29;;;;;;;;;;;5.20;99.90;;;;;;2615991;54;20486;-71
2022/12/04 20:33:00;;;;;;;;;;;5.20;99.90;;;;;;2617025;54;19951;-71
2022/12/04 20:35:29;;;;;;;;;;;5.20;99.90;;;;;;2616329;39;20384;-70
2022/12/04 20:38:02;;;;;;;;;;;5.20;99.90;;;;;;2617027;47;19954;-71
2022/12/04 20:40:32;;;;;;;;;;;5.20;99.90;;;;;;2616120;54;19977;-70
2022/12/04 20:43:01;;;;;;;;;;;5.20;99.90;;;;;;2615774;47;19986;-70
2022/12/04 20:45:31;;;;;;;;;;;5.20;99.90;;;;;;2616212;47;19969;-71
2022/12/04 20:48:01;;;;;;;;;;;5.20;99.90;;;;;;2615521;54;19954;-71
2022/12/04 20:50:31;;;;;;;;;;;5.20;99.90;;;;;;2616764;47;19954;-72
2022/12/04 20:53:03;;;;;;;;;;;5.20;99.90;;;;;;2616565;47;20519;-71
2022/12/04 20:55:33;;;;;;;;;;;5.20;99.90;;;;;;2616829;47;19946;-70
2022/12/04 20:58:03;;;;;;;;;;;5.30;99.90;;;;;;2616935;47;20506;-71
2022/12/04 21:00:33;;;;;;;;;;;5.20;99.90;;;;;;2621355;47;19946;-71
2022/12/04 21:03:02;;;;;;;;;;;5.20;99.90;;;;;;2617938;47;19946;-71
2022/12/04 21:05:32;;;;;;;;;;;5.20;99.90;;;;;;2616926;39;20336;-71
2022/12/04 21:08:04;;;;;;;;;;;5.20;99.90;;;;;;2615918;54;20071;-72
2022/12/04 21:10:34;;;;;;;;;;;5.30;99.90;;;;;;2615756;54;19957;-70
2022/12/04 21:18:28;;;;;;;;;;;5.20;99.90;;;;;;2617232;47;19957;-71
2022/12/04 21:20:57;;;;;;;;;;;5.20;99.90;;;;;;2615868;47;20038;-73
2022/12/04 21:23:29;;;;;;;;;;;5.20;99.90;;;;;;2616800;47;19938;-71
2022/12/04 21:25:59;;;;;;;;;;;5.20;99.90;;;;;;2617610;54;19994;-74
2022/12/04 21:28:31;;;;;;;;;;;5.20;99.90;;;;;;2617796;54;19946;-72
2022/12/04 21:31:04;;;;;;;;;;;5.20;99.90;;;;;;2617071;54;20032;-72
2022/12/04 21:33:36;;;;;;;;;;;5.20;99.90;;;;;;2616855;47;19962;-73
2022/12/04 21:36:07;;;;;;;;;;;5.20;99.90;;;;;;2617127;54;19947;-72
2022/12/04 21:38:40;;;;;;;;;;;5.10;99.90;;;;;;2617434;47;19971;-72
2022/12/04 21:42:28;;;;;;;;;;;5.20;99.90;;;;;;2616353;47;19946;-73
2022/12/04 21:44:00;;;;;;;;;;;5.10;99.90;;;;;;2616420;54;20467;-74
2022/12/04 21:46:30;;;;;;;;;;;5.10;99.90;;;;;;2616680;47;20001;-74
2022/12/04 21:49:00;;;;;;;;;;;5.10;99.90;;;;;;2616938;54;20038;-71
2022/12/04 21:51:29;;;;;;;;;;;5.10;99.90;;;;;;2616401;54;19954;-73
2022/12/04 21:54:22;;;;;;;;;;;5.00;99.90;;;;;;2617513;54;20486;-72
2022/12/04 21:56:51;;;;;;;;;;;5.00;99.90;;;;;;2617399;54;20530;-72
2022/12/04 21:59:21;;;;;;;;;;;5.00;99.90;;;;;;2617703;39;20412;-73
2022/12/04 22:01:51;;;;;;;;;;;5.00;99.90;;;;;;2616637;47;20030;-72
2022/12/04 22:04:21;;;;;;;;;;;5.00;99.90;;;;;;2617592;47;19954;-72
2022/12/04 22:06:51;;;;;;;;;;;5.00;99.90;;;;;;2617208;54;19950;-71
2022/12/04 22:09:24;;;;;;;;;;;5.00;99.90;;;;;;2618542;54;19942;-72
2022/12/04 22:11:54;;;;;;;;;;;4.90;99.90;;;;;;2624611;47;19946;-71
2022/12/04 22:14:23;;;;;;;;;;;5.00;99.90;;;;;;2625963;54;19954;-72
2022/12/04 22:16:53;;;;;;;;;;;4.90;99.90;;;;;;2622044;54;19951;-72
2022/12/04 22:19:23;;;;;;;;;;;5.00;99.90;;;;;;2618515;54;20831;-72
2022/12/04 22:21:52;;;;;;;;;;;4.90;99.90;;;;;;2618278;54;19946;-71
2022/12/04 22:24:25;;;;;;;;;;;4.90;99.90;;;;;;2618182;54;19970;-72
2022/12/04 22:26:56;;;;;;;;;;;4.80;99.90;;;;;;2619171;47;19947;-73
2022/12/04 22:29:33;;;;;;;;;;;4.80;99.90;;;;;;2618468;54;19950;-71
2022/12/04 22:32:21;;;;;;;;;;;4.90;99.90;;;;;;2618666;47;20002;-73
2022/12/04 22:34:53;;;;;;;;;;;4.90;99.90;;;;;;2618863;47;19946;-72
2022/12/04 22:37:23;;;;;;;;;;;4.80;99.90;;;;;;2620582;54;19946;-71
2022/12/04 22:39:55;;;;;;;;;;;4.80;99.90;;;;;;2622514;54;19951;-72
2022/12/04 22:42:25;;;;;;;;;;;4.80;99.90;;;;;;2617318;51;19946;-71
2022/12/04 22:44:55;;;;;;;;;;;4.80;99.90;;;;;;2619511;54;19953;-72
2022/12/04 22:47:24;;;;;;;;;;;4.80;99.90;;;;;;2622097;54;19943;-72
2022/12/04 22:49:54;;;;;;;;;;;4.80;99.90;;;;;;2622614;47;19951;-71
2022/12/04 22:52:24;;;;;;;;;;;4.80;99.90;;;;;;2617692;47;19947;-72
2022/12/04 22:54:56;;;;;;;;;;;4.80;99.90;;;;;;2618333;47;19954;-73
2022/12/04 22:57:27;;;;;;;;;;;4.80;99.90;;;;;;2618100;54;20464;-71
2022/12/04 22:59:57;;;;;;;;;;;4.90;99.90;;;;;;2623315;54;19987;-70
2022/12/04 23:02:29;;;;;;;;;;;4.80;99.90;;;;;;2624771;47;19951;-72
2022/12/04 23:04:59;;;;;;;;;;;4.80;99.90;;;;;;2621797;47;19955;-70
2022/12/04 23:07:29;;;;;;;;;;;4.80;99.90;;;;;;2618013;54;19939;-71
2022/12/04 23:10:02;;;;;;;;;;;4.70;99.90;;;;;;2619286;47;19939;-72
2022/12/04 23:12:33;;;;;;;;;;;4.80;99.90;;;;;;2617591;47;19950;-70
2022/12/04 23:15:07;;;;;;;;;;;4.80;99.90;;;;;;2617885;47;19946;-71
2022/12/04 23:17:36;;;;;;;;;;;4.70;99.90;;;;;;2617570;54;20473;-73
2022/12/04 23:20:07;;;;;;;;;;;4.70;99.90;;;;;;2617621;54;19980;-73
2022/12/04 23:22:37;;;;;;;;;;;4.70;99.90;;;;;;2620351;54;19999;-72
2022/12/04 23:25:10;;;;;;;;;;;4.70;99.90;;;;;;2619654;54;19967;-71
2022/12/04 23:27:40;;;;;;;;;;;4.70;99.90;;;;;;2620641;39;20366;-71
2022/12/04 23:30:10;;;;;;;;;;;4.60;99.90;;;;;;2619830;47;19946;-72
2022/12/04 23:32:40;;;;;;;;;;;4.60;99.90;;;;;;2622204;39;20383;-72
2022/12/04 23:35:24;;;;;;;;;;;4.60;99.90;;;;;;2620069;54;20055;-72
2022/12/04 23:37:56;;;;;;;;;;;4.50;99.90;;;;;;2619333;54;19947;-72
2022/12/04 23:40:28;;;;;;;;;;;4.50;99.90;;;;;;2619374;54;19998;-72
2022/12/04 23:42:58;;;;;;;;;;;4.60;99.90;;;;;;2619174;54;19950;-71
2022/12/04 23:45:28;;;;;;;;;;;4.60;99.90;;;;;;2618093;54;19954;-72
2022/12/04 23:47:57;;;;;;;;;;;4.50;99.90;;;;;;2618715;54;19970;-73
2022/12/04 23:50:27;;;;;;;;;;;4.50;99.90;;;;;;2618877;47;19946;-73
2022/12/04 23:52:57;;;;;;;;;;;4.60;99.90;;;;;;2619517;47;20009;-72
2022/12/04 23:55:30;;;;;;;;;;;4.60;99.90;;;;;;2618577;51;19954;-71
2022/12/04 23:58:03;;;;;;;;;;;4.60;99.90;;;;;;2618892;39;20697;-71
